Time;durP1;ratioP1;P1;durP2;ratioP2;P2;SDS_P1;SDS_P2;PMS_P1;PMS_P2;Temp;Humidity;BMP_temperature;BMP_pressure;BME280_temperature;BME280_humidity;BME280_pressure;Samples;Min_cycle;Max_cycle;Signal;HPM_P1;HPM_P2
2023/03/01 00:00:30;;;;;;;;;20.60;17.60;;;;;5.80;39.75;102144.25;2071052;28;46001;-66
2023/03/01 00:01:31;;;;;;;;;24.75;23.25;;;;;5.79;39.75;102147.75;2083544;28;46592;-67
2023/03/01 00:02:31;;;;;;;;;18.50;16.75;;;;;5.79;40.25;102137.22;2088201;28;46615;-65
2023/03/01 00:03:32;;;;;;;;;17.25;16.00;;;;;5.78;39.78;102143.34;2079440;28;46177;-66
2023/03/01 00:04:33;;;;;;;;;19.00;19.00;;;;;5.77;40.43;102144.19;2079548;28;46952;-66
2023/03/01 00:05:33;;;;;;;;;22.75;19.75;;;;;5.78;40.11;102151.25;2079892;28;46021;-65
2023/03/01 00:06:33;;;;;;;;;20.00;19.00;;;;;5.76;40.27;102145.06;2079501;28;46413;-67
2023/03/01 00:07:34;;;;;;;;;19.50;19.50;;;;;5.75;40.34;102148.56;2083128;28;45798;-66
2023/03/01 00:08:35;;;;;;;;;23.25;21.75;;;;;5.75;40.19;102144.19;2079547;28;46601;-64
2023/03/01 00:09:37;;;;;;;;;23.60;21.60;;;;;5.73;39.89;102153.78;2079355;28;46232;-66
2023/03/01 00:10:37;;;;;;;;;20.80;20.80;;;;;5.71;40.36;102144.06;2079635;28;46411;-66
2023/03/01 00:11:38;;;;;;;;;21.00;20.00;;;;;5.69;40.10;102143.13;2079559;28;47040;-66
2023/03/01 00:12:38;;;;;;;;;19.75;19.75;;;;;5.67;40.39;102153.66;2077963;28;46220;-67
2023/03/01 00:13:40;;;;;;;;;22.00;21.50;;;;;5.66;40.23;102149.25;2087442;28;46508;-66
2023/03/01 00:14:40;;;;;;;;;23.00;20.20;;;;;5.65;40.58;102147.47;2088611;28;46791;-66
2023/03/01 00:15:41;;;;;;;;;20.50;20.25;;;;;5.65;40.26;102146.56;2078527;28;45913;-66
2023/03/01 00:16:42;;;;;;;;;18.25;18.25;;;;;5.64;40.05;102155.34;2080116;28;45777;-67
2023/03/01 00:17:43;;;;;;;;;16.40;16.40;;;;;5.61;40.44;102146.53;2087527;28;45536;-66
2023/03/01 00:18:44;;;;;;;;;25.00;21.75;;;;;5.61;40.54;102150.91;2092353;28;47001;-66
2023/03/01 00:19:44;;;;;;;;;18.75;18.50;;;;;5.59;40.19;102150.88;2087301;28;45950;-66
2023/03/01 00:20:55;;;;;;;;;18.50;18.50;;;;;5.58;40.20;102146.44;2079256;28;45887;-65
2023/03/01 00:21:55;;;;;;;;;19.00;19.00;;;;;5.57;40.30;102144.66;2076358;28;46928;-66
2023/03/01 00:22:55;;;;;;;;;18.75;18.75;;;;;5.58;40.32;102148.19;2079900;28;46123;-67
2023/03/01 00:23:56;;;;;;;;;22.00;21.00;;;;;5.56;40.49;102156.03;2079686;28;45998;-65
2023/03/01 00:24:56;;;;;;;;;26.00;23.00;;;;;5.56;40.69;102147.25;2079518;28;46793;-66
2023/03/01 00:25:57;;;;;;;;;25.75;22.50;;;;;5.54;40.38;102148.97;2076710;28;46601;-67
2023/03/01 00:26:57;;;;;;;;;18.50;16.25;;;;;5.52;40.59;102142.78;2078705;28;46450;-65
2023/03/01 00:27:58;;;;;;;;;25.25;23.00;;;;;5.50;40.55;102144.50;2095895;28;46448;-66
2023/03/01 00:28:59;;;;;;;;;20.50;20.25;;;;;5.49;40.34;102150.63;2095404;28;46114;-66
2023/03/01 00:29:59;;;;;;;;;18.20;18.00;;;;;5.48;40.84;102151.50;2079422;28;46695;-66
2023/03/01 00:31:07;;;;;;;;;20.00;19.25;;;;;5.46;41.08;102146.19;2080541;28;46212;-66
2023/03/01 00:32:08;;;;;;;;;20.80;19.00;;;;;5.46;41.03;102148.81;2081122;28;46316;-66
2023/03/01 00:33:08;;;;;;;;;23.75;22.50;;;;;5.45;40.63;102147.00;2094718;28;46451;-65
2023/03/01 00:34:09;;;;;;;;;22.00;22.00;;;;;5.45;41.12;102147.00;2095810;28;46137;-65
2023/03/01 00:35:09;;;;;;;;;21.50;20.75;;;;;5.44;40.46;102145.25;2086771;28;46730;-66
2023/03/01 00:36:12;;;;;;;;;20.00;20.00;;;;;5.45;40.69;102140.88;2086444;28;46760;-65
2023/03/01 00:37:13;;;;;;;;;20.40;18.40;;;;;5.44;41.04;102149.63;2079643;28;46940;-65
2023/03/01 00:38:13;;;;;;;;;24.00;23.25;;;;;5.43;40.86;102143.47;2091909;28;46195;-65
2023/03/01 00:39:15;;;;;;;;;21.50;21.25;;;;;5.41;40.87;102147.81;2087386;28;46590;-67
2023/03/01 00:40:16;;;;;;;;;23.20;20.80;;;;;5.41;41.12;102150.44;2077974;28;46684;-66
2023/03/01 00:41:18;;;;;;;;;20.80;19.80;;;;;5.40;40.91;102151.31;2079997;28;46960;-66
2023/03/01 00:42:18;;;;;;;;;25.00;22.40;;;;;5.40;41.29;102139.88;2079335;28;47244;-66
2023/03/01 00:43:19;;;;;;;;;22.00;22.00;;;;;5.40;40.73;102153.03;2077502;28;46295;-65
2023/03/01 00:44:19;;;;;;;;;21.75;21.00;;;;;5.40;40.81;102151.31;2079455;28;46311;-65
2023/03/01 00:45:20;;;;;;;;;23.75;23.25;;;;;5.40;41.31;102143.41;2079295;28;46696;-65
2023/03/01 00:46:24;;;;;;;;;24.00;21.00;;;;;5.40;40.76;102142.53;2077216;28;46048;-64
2023/03/01 00:47:24;;;;;;;;;20.40;19.40;;;;;5.40;40.87;102146.03;2079780;28;45675;-66
2023/03/01 00:48:25;;;;;;;;;21.25;20.00;;;;;5.39;41.35;102146.91;2079044;28;46307;-66
2023/03/01 00:49:27;;;;;;;;;20.50;20.00;;;;;5.40;41.04;102150.41;2079253;28;46370;-66
2023/03/01 00:50:28;;;;;;;;;20.20;17.00;;;;;5.40;40.95;102153.03;2079453;28;46586;-66
2023/03/01 00:51:29;;;;;;;;;22.00;20.25;;;;;5.38;41.42;102150.38;2079479;28;45321;-66
2023/03/01 00:52:29;;;;;;;;;24.80;22.00;;;;;5.37;41.43;102148.63;2080900;28;46411;-65
2023/03/01 00:53:29;;;;;;;;;22.75;22.50;;;;;5.37;41.28;102151.25;2095590;28;46632;-66
2023/03/01 00:54:30;;;;;;;;;19.25;19.25;;;;;5.36;40.93;102146.84;2091202;28;46336;-66
2023/03/01 00:55:31;;;;;;;;;18.25;18.25;;;;;5.36;40.95;102145.94;2080844;28;46286;-66
2023/03/01 00:56:31;;;;;;;;;23.00;20.75;;;;;5.35;41.68;102150.31;2077670;28;46400;-66
2023/03/01 00:57:33;;;;;;;;;22.50;22.25;;;;;5.34;40.98;102151.19;2080952;28;46714;-66
2023/03/01 00:58:34;;;;;;;;;23.40;19.60;;;;;5.33;40.94;102154.63;2080181;28;46892;-66
2023/03/01 00:59:35;;;;;;;;;21.60;20.60;;;;;5.32;41.16;102148.50;2080260;28;46979;-66
2023/03/01 01:00:35;;;;;;;;;19.75;19.25;;;;;5.32;41.38;102153.75;2073546;28;46587;-66
2023/03/01 01:01:36;;;;;;;;;24.75;24.00;;;;;5.33;41.28;102157.28;2080976;28;46079;-65
2023/03/01 01:02:36;;;;;;;;;21.00;18.75;;;;;5.32;41.17;102148.50;2080842;28;46740;-66
2023/03/01 01:03:37;;;;;;;;;21.25;20.00;;;;;5.31;41.35;102146.72;2080979;28;46531;-65
2023/03/01 01:04:37;;;;;;;;;23.75;23.75;;;;;5.33;41.19;102149.38;2080419;28;46551;-65
2023/03/01 01:05:37;;;;;;;;;20.50;20.50;;;;;5.32;41.35;102148.50;2081306;28;46290;-65
2023/03/01 01:06:45;;;;;;;;;24.00;21.50;;;;;5.32;41.62;102151.13;2081145;28;46135;-65
2023/03/01 01:07:47;;;;;;;;;14.20;13.20;;;;;5.31;41.67;102145.81;2080583;28;46863;-66
2023/03/01 01:08:48;;;;;;;;;21.20;21.20;;;;;5.30;41.21;102142.31;2081890;28;45853;-66
2023/03/01 01:09:48;;;;;;;;;27.00;23.40;;;;;5.29;41.41;102140.53;2079738;28;46773;-66
2023/03/01 01:10:49;;;;;;;;;18.25;18.00;;;;;5.29;41.36;102144.91;2079978;28;46316;-65
2023/03/01 01:11:51;;;;;;;;;23.25;20.75;;;;;5.27;41.50;102144.88;2080530;28;46872;-65
2023/03/01 01:12:51;;;;;;;;;21.00;21.00;;;;;5.27;41.57;102146.63;2076965;28;45474;-66
2023/03/01 01:13:51;;;;;;;;;21.75;20.75;;;;;5.26;41.30;102143.09;2087657;28;46320;-65
2023/03/01 01:14:52;;;;;;;;;26.00;24.25;;;;;5.26;41.38;102142.22;2096368;28;46481;-66
2023/03/01 01:15:52;;;;;;;;;7.25;3.50;;;;;5.25;41.46;102143.97;2081057;28;46564;-67
2023/03/01 01:16:53;;;;;;;;;21.25;21.25;;;;;5.25;41.42;102141.31;2080889;28;45363;-66
2023/03/01 01:17:54;;;;;;;;;23.25;20.50;;;;;5.24;41.45;102138.66;2080714;28;46298;-66
2023/03/01 01:18:55;;;;;;;;;20.80;20.80;;;;;5.23;42.06;102129.88;2080531;28;46838;-67
2023/03/01 01:19:55;;;;;;;;;19.80;19.80;;;;;5.25;41.82;102133.44;2080784;28;46336;-65
2023/03/01 01:20:56;;;;;;;;;18.75;18.75;;;;;5.25;41.79;102133.44;2080812;28;46242;-65
2023/03/01 01:21:56;;;;;;;;;20.75;20.75;;;;;5.25;41.68;102135.16;2073440;28;46198;-65
2023/03/01 01:22:57;;;;;;;;;17.50;17.50;;;;;5.24;41.73;102139.56;2076537;28;46293;-65
2023/03/01 01:23:58;;;;;;;;;23.25;22.75;;;;;5.24;41.49;102133.41;2080498;28;46190;-67
2023/03/01 01:24:58;;;;;;;;;20.75;20.00;;;;;5.23;41.33;102132.50;2080693;28;45571;-66
2023/03/01 01:26:07;;;;;;;;;18.00;18.00;;;;;5.25;41.85;102132.53;2078046;28;46794;-65
2023/03/01 01:27:07;;;;;;;;;19.20;18.60;;;;;5.26;41.94;102136.94;2081705;28;46173;-66
2023/03/01 01:28:08;;;;;;;;;20.50;19.00;;;;;5.27;41.57;102136.09;2080534;28;48299;-65
2023/03/01 01:29:09;;;;;;;;;19.25;17.25;;;;;5.26;41.74;102132.56;2080798;28;45777;-65
2023/03/01 01:30:10;;;;;;;;;26.40;25.80;;;;;5.28;41.65;102135.22;2080142;28;47891;-66
2023/03/01 01:31:11;;;;;;;;;19.60;19.60;;;;;5.27;41.55;102131.72;2082905;28;46929;-66
2023/03/01 01:32:11;;;;;;;;;23.25;22.00;;;;;5.28;41.45;102128.22;2096904;28;45066;-66
2023/03/01 01:33:11;;;;;;;;;19.75;19.75;;;;;5.28;42.14;102124.72;2080591;28;46387;-65
2023/03/01 01:34:15;;;;;;;;;21.00;21.00;;;;;5.28;41.54;102122.06;2079745;28;46373;-65
2023/03/01 01:35:15;;;;;;;;;19.20;19.20;;;;;5.28;41.59;102120.31;2080764;28;46768;-67
2023/03/01 01:36:16;;;;;;;;;26.50;25.50;;;;;5.27;41.73;102118.56;2095617;28;46559;-67
2023/03/01 01:37:16;;;;;;;;;20.50;19.75;;;;;5.28;41.51;102120.31;2095426;28;45886;-65
2023/03/01 01:38:16;;;;;;;;;25.50;25.50;;;;;5.25;41.71;102109.75;2088621;28;46692;-66
2023/03/01 01:39:17;;;;;;;;;23.00;22.75;;;;;5.25;42.07;102109.75;2085332;28;47089;-65
2023/03/01 01:40:17;;;;;;;;;19.00;16.75;;;;;5.25;41.79;102109.75;2080339;28;45295;-65
2023/03/01 01:41:18;;;;;;;;;24.25;19.75;;;;;5.25;42.24;102109.75;2087465;28;46791;-66
2023/03/01 01:42:18;;;;;;;;;18.25;16.25;;;;;5.24;41.67;102107.06;2080277;28;45697;-65
2023/03/01 01:43:23;;;;;;;;;26.25;23.50;;;;;5.21;42.19;102101.75;2080435;28;46718;-65
2023/03/01 01:44:26;;;;;;;;;17.80;17.60;;;;;5.22;41.95;102114.06;2079022;28;45699;-65
2023/03/01 01:45:35;;;;;;;;;26.60;23.00;;;;;5.22;42.10;102107.06;2081030;28;45571;-65
2023/03/01 01:46:40;;;;;;;;;20.40;18.60;;;;;5.22;41.85;102104.41;2080923;28;46204;-65
2023/03/01 01:47:40;;;;;;;;;21.20;19.60;;;;;5.23;42.23;102097.41;2080155;28;45789;-65
2023/03/01 01:48:45;;;;;;;;;17.75;17.75;;;;;5.24;41.54;102099.19;2081677;28;46595;-66
2023/03/01 01:49:50;;;;;;;;;20.80;19.40;;;;;5.24;41.77;102102.69;2073483;28;47058;-66
2023/03/01 01:51:00;;;;;;;;;20.60;20.00;;;;;5.24;41.68;102101.81;2080747;28;46811;-65
2023/03/01 01:52:13;;;;;;;;;22.60;19.60;;;;;5.25;42.11;102099.22;2080491;28;47223;-66
2023/03/01 01:53:19;;;;;;;;;20.20;20.20;;;;;5.25;41.79;102098.31;2080643;28;47259;-65
2023/03/01 01:54:27;;;;;;;;;23.60;22.40;;;;;5.24;41.75;102099.19;2080684;28;46166;-65
2023/03/01 01:55:27;;;;;;;;;22.80;18.60;;;;;5.23;41.50;102103.56;2080529;28;46567;-66
2023/03/01 01:56:29;;;;;;;;;20.25;20.25;;;;;5.23;41.81;102100.03;2080326;28;46704;-65
2023/03/01 01:57:35;;;;;;;;;20.60;20.60;;;;;5.22;42.07;102106.16;2074492;28;46110;-65
2023/03/01 01:58:37;;;;;;;;;18.20;18.20;;;;;5.20;42.19;102102.56;2079570;28;46443;-66
2023/03/01 01:59:42;;;;;;;;;16.00;16.00;;;;;5.18;41.96;102104.28;2080670;28;45807;-65
2023/03/01 02:00:43;;;;;;;;;20.20;20.20;;;;;5.16;41.69;102111.28;2081294;28;47056;-66
2023/03/01 02:01:43;;;;;;;;;19.00;19.00;;;;;5.15;41.95;102115.66;2080591;28;46415;-66
2023/03/01 02:02:47;;;;;;;;;18.00;18.00;;;;;5.14;41.82;102111.25;2080539;28;46191;-65
2023/03/01 02:03:48;;;;;;;;;20.00;20.00;;;;;5.13;42.36;102112.09;2080629;28;46585;-67
2023/03/01 02:05:03;;;;;;;;;20.00;19.20;;;;;5.12;42.13;102107.69;2080784;28;46363;-65
2023/03/01 02:06:11;;;;;;;;;22.60;18.80;;;;;5.12;42.18;102101.53;2073120;28;46872;-66
2023/03/01 02:07:17;;;;;;;;;18.20;18.20;;;;;5.10;41.79;102106.78;2080564;28;45840;-65
2023/03/01 02:08:20;;;;;;;;;19.80;19.80;;;;;5.09;42.20;102091.84;2073326;28;47832;-66
2023/03/01 02:09:22;;;;;;;;;20.40;20.20;;;;;5.11;42.09;102112.91;2074416;28;46486;-65
2023/03/01 02:10:24;;;;;;;;;19.60;19.60;;;;;5.09;41.84;102112.88;2074860;28;46676;-65
2023/03/01 02:11:27;;;;;;;;;19.00;19.00;;;;;5.08;42.40;102105.81;2078257;28;45386;-66
2023/03/01 02:12:28;;;;;;;;;15.00;15.00;;;;;5.08;42.04;102104.94;2081045;28;46378;-66
2023/03/01 02:13:31;;;;;;;;;22.40;19.00;;;;;5.06;42.25;102104.91;2077051;28;46443;-65
2023/03/01 02:14:31;;;;;;;;;19.00;18.00;;;;;5.05;42.25;102102.25;2077352;28;46604;-67
2023/03/01 02:15:34;;;;;;;;;20.00;19.25;;;;;5.05;42.47;102107.50;2080320;28;46816;-65
2023/03/01 02:16:34;;;;;;;;;28.20;21.00;;;;;5.03;42.68;102103.09;2080424;28;46013;-65
2023/03/01 02:17:35;;;;;;;;;21.00;21.00;;;;;5.03;42.67;102096.94;2080806;28;46213;-66
2023/03/01 02:18:38;;;;;;;;;22.00;20.50;;;;;5.03;42.10;102105.72;2080506;28;45365;-68
2023/03/01 02:20:09;;;;;;;;;23.00;23.00;;;;;5.03;42.43;102103.09;2084041;28;46687;-65
2023/03/01 02:21:34;;;;;;;;;25.60;24.00;;;;;5.03;42.15;102096.94;2080479;28;47096;-66
2023/03/01 02:22:37;;;;;;;;;19.00;19.00;;;;;5.01;42.24;102094.28;2076111;28;46976;-65
2023/03/01 02:23:38;;;;;;;;;20.80;17.40;;;;;5.00;42.30;102097.78;2080441;28;46392;-65
2023/03/01 02:25:12;;;;;;;;;26.00;22.80;;;;;4.98;42.73;102098.59;2080387;28;46740;-65
2023/03/01 02:26:24;;;;;;;;;21.20;19.00;;;;;4.97;42.70;102095.06;2076557;28;46758;-65
2023/03/01 02:27:36;;;;;;;;;23.80;21.20;;;;;4.97;42.75;102094.19;2078772;28;47010;-65
2023/03/01 02:28:40;;;;;;;;;24.60;24.60;;;;;4.96;42.80;102087.16;2074783;28;46804;-66
2023/03/01 02:29:43;;;;;;;;;22.00;20.60;;;;;4.97;42.60;102081.03;2080170;28;45321;-65
2023/03/01 02:32:10;;;;;;;;;20.40;20.40;;;;;4.95;42.92;102080.97;2080546;28;45648;-66
2023/03/01 02:33:10;;;;;;;;;23.60;21.80;;;;;4.96;43.03;102088.03;2080217;28;46042;-66
2023/03/01 02:34:17;;;;;;;;;23.00;23.00;;;;;4.95;42.56;102088.88;2080487;28;45444;-65
2023/03/01 02:35:19;;;;;;;;;14.40;14.40;;;;;4.92;42.53;102080.91;2083297;28;46852;-66
2023/03/01 02:36:26;;;;;;;;;24.40;24.00;;;;;4.93;43.14;102081.78;2072107;28;46309;-67
2023/03/01 02:37:27;;;;;;;;;19.00;17.60;;;;;4.92;42.94;102080.91;2072577;28;46954;-66
2023/03/01 02:38:28;;;;;;;;;24.00;22.80;;;;;4.93;42.93;102084.44;2076311;28;46002;-65
2023/03/01 02:39:41;;;;;;;;;25.50;22.25;;;;;4.91;42.93;102080.88;2080645;28;45599;-65
2023/03/01 02:40:42;;;;;;;;;22.20;20.80;;;;;4.92;42.81;102085.28;2080411;28;46621;-66
2023/03/01 02:41:47;;;;;;;;;27.00;25.75;;;;;4.91;42.91;102081.75;2080874;28;45513;-65
2023/03/01 02:42:54;;;;;;;;;24.60;21.00;;;;;4.90;43.18;102085.25;2099650;28;46616;-66
2023/03/01 02:43:55;;;;;;;;;21.60;21.60;;;;;4.90;43.13;102079.09;2095049;28;46656;-66
2023/03/01 02:44:55;;;;;;;;;25.50;24.50;;;;;4.89;42.96;102082.59;2087847;28;45988;-65
2023/03/01 02:46:02;;;;;;;;;22.25;19.50;;;;;4.88;43.19;102081.69;2072191;28;46443;-65
2023/03/01 02:47:04;;;;;;;;;23.20;21.40;;;;;4.88;43.15;102080.81;2079804;28;45965;-65
2023/03/01 02:48:04;;;;;;;;;23.80;21.00;;;;;4.87;42.66;102072.03;2079845;28;46420;-65
2023/03/01 02:49:28;;;;;;;;;20.75;18.75;;;;;4.86;42.90;102078.16;2080083;28;46514;-66
2023/03/01 02:50:28;;;;;;;;;20.80;20.80;;;;;4.85;42.81;102073.75;2079326;28;46693;-65
2023/03/01 02:51:51;;;;;;;;;27.50;23.75;;;;;4.85;43.20;102075.50;2080964;28;46070;-64
2023/03/01 02:53:04;;;;;;;;;22.20;20.40;;;;;4.84;43.14;102068.44;2095980;28;46435;-66
2023/03/01 02:54:31;;;;;;;;;21.80;19.40;;;;;4.82;43.04;102071.03;2093286;28;45641;-66
2023/03/01 02:55:31;;;;;;;;;23.60;22.40;;;;;4.81;42.97;102066.63;2080001;28;45638;-66
2023/03/01 02:56:31;;;;;;;;;22.75;22.00;;;;;4.81;43.36;102071.88;2080001;28;46585;-65
2023/03/01 02:57:34;;;;;;;;;23.75;21.75;;;;;4.82;42.89;102072.75;2080748;28;46222;-66
2023/03/01 02:58:40;;;;;;;;;22.00;18.00;;;;;4.81;43.22;102068.34;2082145;28;46025;-66
2023/03/01 02:59:42;;;;;;;;;23.00;23.00;;;;;4.81;43.17;102065.72;2079860;28;47175;-65
2023/03/01 03:00:46;;;;;;;;;24.20;23.00;;;;;4.80;42.64;102064.84;2080594;28;45963;-65
2023/03/01 03:01:47;;;;;;;;;16.20;16.20;;;;;4.79;43.17;102065.69;2079954;28;46775;-65
2023/03/01 03:02:50;;;;;;;;;17.50;17.50;;;;;4.78;43.14;102063.91;2080556;28;46172;-66
2023/03/01 03:03:50;;;;;;;;;24.00;24.00;;;;;4.78;42.95;102063.03;2080066;28;46454;-66
2023/03/01 03:04:50;;;;;;;;;20.00;19.50;;;;;4.79;42.89;102059.53;2080430;28;46767;-65
2023/03/01 03:05:50;;;;;;;;;21.50;19.75;;;;;4.79;43.38;102059.53;2080533;28;45212;-65
2023/03/01 03:06:51;;;;;;;;;22.50;22.50;;;;;4.79;43.44;102062.19;2080225;28;46713;-65
2023/03/01 03:07:52;;;;;;;;;21.50;20.75;;;;;4.77;43.15;102056.88;2079923;28;46915;-66
2023/03/01 03:08:52;;;;;;;;;27.60;27.60;;;;;4.78;43.34;102056.03;2084048;28;46734;-65
2023/03/01 03:09:52;;;;;;;;;19.50;18.75;;;;;4.78;43.52;102053.41;2080130;28;46401;-66
2023/03/01 03:10:53;;;;;;;;;19.25;19.25;;;;;4.77;43.53;102058.63;2080409;28;46233;-65
2023/03/01 03:11:53;;;;;;;;;22.50;21.00;;;;;4.75;43.43;102053.34;2080031;28;46358;-65
2023/03/01 03:12:56;;;;;;;;;27.25;22.50;;;;;4.75;43.34;102052.44;2077569;28;46360;-65
2023/03/01 03:13:57;;;;;;;;;21.20;21.20;;;;;4.73;43.60;102049.78;2071102;28;46883;-65
2023/03/01 03:14:57;;;;;;;;;24.40;22.40;;;;;4.71;43.41;102052.38;2071519;28;46042;-66
2023/03/01 03:15:58;;;;;;;;;25.25;22.50;;;;;4.70;43.54;102045.34;2089013;28;46714;-66
2023/03/01 03:16:58;;;;;;;;;29.75;25.50;;;;;4.69;43.50;102046.16;2096351;28;46804;-65
2023/03/01 03:17:59;;;;;;;;;21.75;21.75;;;;;4.68;43.17;102044.41;2075360;28;46916;-65
2023/03/01 03:19:04;;;;;;;;;23.50;21.00;;;;;4.67;43.60;102037.38;2071679;28;46684;-65
2023/03/01 03:20:10;;;;;;;;;23.20;21.80;;;;;4.68;43.58;102044.41;2071987;28;45812;-65
2023/03/01 03:21:12;;;;;;;;;22.60;22.00;;;;;4.69;43.46;102042.66;2075153;28;46840;-66
2023/03/01 03:22:13;;;;;;;;;23.40;23.00;;;;;4.68;43.79;102052.28;2071926;28;46927;-66
2023/03/01 03:23:14;;;;;;;;;23.50;21.50;;;;;4.68;43.69;102046.13;2080086;28;46832;-65
2023/03/01 03:24:14;;;;;;;;;25.50;23.75;;;;;4.67;43.52;102050.50;2080458;28;46617;-64
2023/03/01 03:25:15;;;;;;;;;21.50;19.00;;;;;4.68;43.41;102048.78;2080132;28;46167;-66
2023/03/01 03:26:16;;;;;;;;;21.00;18.00;;;;;4.68;43.75;102041.78;2088703;28;45823;-65
2023/03/01 03:27:16;;;;;;;;;22.00;22.00;;;;;4.68;43.91;102044.41;2087475;28;46259;-65
2023/03/01 03:28:17;;;;;;;;;26.50;22.75;;;;;4.69;43.93;102043.53;2080296;28;46584;-65
2023/03/01 03:29:18;;;;;;;;;22.00;18.60;;;;;4.69;43.92;102051.44;2079760;28;46996;-65
2023/03/01 03:30:19;;;;;;;;;23.75;21.50;;;;;4.69;43.55;102048.81;2080287;28;46662;-65
2023/03/01 03:31:21;;;;;;;;;18.80;18.80;;;;;4.69;43.43;102051.44;2083519;28;45597;-65
2023/03/01 03:32:21;;;;;;;;;22.80;22.00;;;;;4.69;43.92;102048.81;2084772;28;46565;-67
2023/03/01 03:33:22;;;;;;;;;25.25;24.00;;;;;4.70;43.42;102052.31;2095059;28;45428;-65
2023/03/01 03:34:22;;;;;;;;;23.25;22.00;;;;;4.69;43.94;102059.31;2088669;28;46248;-67
2023/03/01 03:35:32;;;;;;;;;25.00;23.50;;;;;4.69;43.59;102048.81;2071707;28;45576;-65
2023/03/01 03:36:32;;;;;;;;;27.00;25.00;;;;;4.69;44.06;102050.53;2079970;28;46501;-67
2023/03/01 03:38:51;;;;;;;;;22.40;22.00;;;;;4.68;43.52;102054.03;2080063;28;46853;-66
2023/03/01 03:39:54;;;;;;;;;23.00;23.00;;;;;4.69;43.63;102055.81;2079956;28;46716;-65
2023/03/01 03:41:07;;;;;;;;;24.00;21.80;;;;;4.67;43.90;102052.25;2079418;28;45897;-65
2023/03/01 03:42:07;;;;;;;;;28.20;26.00;;;;;4.66;43.63;102045.22;2079528;28;46122;-65
2023/03/01 03:43:10;;;;;;;;;27.50;24.00;;;;;4.65;43.56;102051.34;2075043;28;45584;-66
2023/03/01 03:44:11;;;;;;;;;22.60;21.20;;;;;4.64;44.05;102049.56;2077101;28;46412;-66
2023/03/01 03:45:12;;;;;;;;;28.00;22.50;;;;;4.62;43.77;102048.63;2078940;28;46314;-65
2023/03/01 03:46:12;;;;;;;;;24.25;21.50;;;;;4.61;43.68;102041.59;2079283;28;46792;-65
2023/03/01 03:47:13;;;;;;;;;22.00;22.00;;;;;4.61;44.15;102042.50;2079165;28;46316;-65
2023/03/01 03:48:14;;;;;;;;;25.75;22.75;;;;;4.60;43.98;102047.72;2078263;28;46121;-66
2023/03/01 03:49:14;;;;;;;;;29.80;28.60;;;;;4.58;44.18;102038.91;2071271;28;45484;-66
2023/03/01 03:50:16;;;;;;;;;28.00;27.25;;;;;4.56;43.89;102041.47;2078662;28;46227;-65
2023/03/01 03:51:18;;;;;;;;;31.20;26.20;;;;;4.55;43.99;102034.44;2078970;28;46096;-65
2023/03/01 03:52:18;;;;;;;;;26.00;22.20;;;;;4.54;44.10;102040.56;2079350;28;46607;-66
2023/03/01 03:53:20;;;;;;;;;24.00;23.50;;;;;4.52;43.78;102034.38;2070329;28;46728;-65
2023/03/01 03:54:20;;;;;;;;;24.40;23.40;;;;;4.51;44.34;102035.22;2070876;28;46791;-65
2023/03/01 03:55:20;;;;;;;;;25.25;23.50;;;;;4.50;44.33;102029.94;2078943;28;45905;-65
2023/03/01 03:56:25;;;;;;;;;23.00;22.50;;;;;4.49;44.21;102031.69;2079152;28;47089;-66
2023/03/01 03:57:25;;;;;;;;;26.00;23.40;;;;;4.50;44.30;102036.09;2076477;28;47021;-66
2023/03/01 03:58:26;;;;;;;;;27.00;22.00;;;;;4.50;44.01;102035.19;2078486;28;47009;-65
2023/03/01 03:59:26;;;;;;;;;24.00;24.00;;;;;4.50;44.11;102032.56;2080025;28;46458;-65
2023/03/01 04:00:28;;;;;;;;;28.00;23.50;;;;;4.48;44.27;102032.53;2087350;28;47284;-66
2023/03/01 04:01:28;;;;;;;;;30.00;24.20;;;;;4.48;44.12;102035.16;2086904;28;45294;-65
2023/03/01 04:02:28;;;;;;;;;23.00;20.25;;;;;4.47;43.99;102033.41;2079066;28;47006;-66
2023/03/01 04:03:30;;;;;;;;;27.00;26.50;;;;;4.46;44.05;102036.88;2078842;28;46386;-67
2023/03/01 04:04:30;;;;;;;;;29.20;27.00;;;;;4.46;44.08;102041.25;2078537;28;46334;-65
2023/03/01 04:05:31;;;;;;;;;21.75;20.00;;;;;4.44;44.04;102034.19;2078877;28;47379;-65
2023/03/01 04:06:32;;;;;;;;;21.75;21.25;;;;;4.44;44.68;102041.19;2078785;28;46513;-66
2023/03/01 04:07:32;;;;;;;;;29.40;25.20;;;;;4.45;44.23;102040.34;2069816;28;45907;-66
2023/03/01 04:08:33;;;;;;;;;28.50;26.50;;;;;4.44;44.59;102043.81;2070584;28;45634;-65
2023/03/01 04:09:33;;;;;;;;;28.00;28.00;;;;;4.43;44.23;102048.19;2072090;28;45917;-65
2023/03/01 04:10:39;;;;;;;;;28.00;25.50;;;;;4.42;44.51;102043.78;2072802;28;46728;-65
2023/03/01 04:11:39;;;;;;;;;24.40;24.00;;;;;4.41;44.00;102043.75;2062733;28;45603;-66
2023/03/01 04:12:39;;;;;;;;;23.25;22.00;;;;;4.41;44.21;102044.63;2062269;28;46213;-64
2023/03/01 04:13:40;;;;;;;;;29.75;25.50;;;;;4.42;44.65;102043.78;2071250;28;46373;-67
2023/03/01 04:14:40;;;;;;;;;22.25;22.25;;;;;4.41;44.61;102031.50;2078539;28;45532;-66
2023/03/01 04:15:42;;;;;;;;;25.75;25.75;;;;;4.40;44.76;102037.59;2070432;28;46669;-66
2023/03/01 04:16:43;;;;;;;;;18.60;15.60;;;;;4.38;44.66;102041.94;2073350;28;46508;-65
2023/03/01 04:17:45;;;;;;;;;25.75;20.50;;;;;4.39;44.94;102048.06;2070464;28;46072;-66
2023/03/01 04:18:47;;;;;;;;;27.20;24.20;;;;;4.39;44.46;102045.44;2078730;28;45625;-66
2023/03/01 04:19:48;;;;;;;;;22.80;22.60;;;;;4.39;44.24;102045.44;2075699;28;46948;-66
2023/03/01 04:20:51;;;;;;;;;23.80;23.00;;;;;4.39;44.69;102037.56;2069981;28;46095;-66
2023/03/01 04:21:53;;;;;;;;;28.20;26.20;;;;;4.39;44.31;102035.81;2070131;28;46889;-65
2023/03/01 04:23:15;;;;;;;;;21.60;21.40;;;;;4.39;44.34;102033.19;2070542;28;46694;-66
2023/03/01 04:24:16;;;;;;;;;27.40;25.60;;;;;4.39;44.60;102040.19;2063985;28;46654;-66
2023/03/01 04:25:16;;;;;;;;;26.25;25.75;;;;;4.38;44.78;102031.41;2070251;28;46717;-65
2023/03/01 04:26:16;;;;;;;;;26.00;22.00;;;;;4.38;44.35;102031.41;2070923;28;46441;-66
2023/03/01 04:27:17;;;;;;;;;24.75;23.50;;;;;4.36;44.52;102027.88;2070248;28;45505;-66
2023/03/01 04:28:24;;;;;;;;;22.50;22.00;;;;;4.34;44.42;102029.56;2069163;28;45872;-65
2023/03/01 04:29:24;;;;;;;;;26.40;24.40;;;;;4.34;44.88;102031.31;2077737;28;46764;-65
2023/03/01 04:30:25;;;;;;;;;26.75;24.75;;;;;4.32;44.87;102030.38;2078677;28;46260;-65
2023/03/01 04:31:25;;;;;;;;;27.00;26.25;;;;;4.32;44.67;102033.91;2073760;28;46166;-66
2023/03/01 04:32:25;;;;;;;;;30.50;27.75;;;;;4.33;44.48;102029.53;2071021;28;45794;-66
2023/03/01 04:33:26;;;;;;;;;23.00;21.50;;;;;4.32;44.57;102030.38;2071047;28;44965;-66
2023/03/01 04:34:26;;;;;;;;;23.50;22.25;;;;;4.31;44.75;102028.59;2071119;28;46264;-65
2023/03/01 04:35:27;;;;;;;;;23.25;22.50;;;;;4.31;44.83;102037.34;2076145;28;46280;-65
2023/03/01 04:36:29;;;;;;;;;23.75;23.75;;;;;4.30;44.71;102032.97;2070907;28;46548;-66
2023/03/01 04:37:29;;;;;;;;;27.60;26.60;;;;;4.32;44.43;102030.38;2070992;28;46317;-66
2023/03/01 04:38:29;;;;;;;;;28.75;27.75;;;;;4.31;44.62;102032.09;2070952;28;46492;-65
2023/03/01 04:39:30;;;;;;;;;26.00;23.25;;;;;4.32;44.69;102031.28;2071075;28;46224;-65
2023/03/01 04:40:31;;;;;;;;;25.50;25.50;;;;;4.32;44.72;102030.38;2073640;28;46772;-65
2023/03/01 04:41:31;;;;;;;;;21.75;20.00;;;;;4.31;44.99;102024.22;2079825;28;46269;-65
2023/03/01 04:42:31;;;;;;;;;25.75;24.00;;;;;4.31;44.77;102026.84;2082036;28;46334;-66
2023/03/01 04:43:33;;;;;;;;;28.50;27.50;;;;;4.31;44.67;102024.22;2080133;28;45626;-67
2023/03/01 04:44:34;;;;;;;;;23.00;22.40;;;;;4.30;44.62;102025.06;2079682;28;46192;-66
2023/03/01 04:45:34;;;;;;;;;24.75;24.25;;;;;4.29;45.12;102023.28;2079256;28;46317;-66
2023/03/01 04:46:35;;;;;;;;;26.50;25.75;;;;;4.29;44.68;102025.94;2079349;28;46586;-65
2023/03/01 04:47:38;;;;;;;;;26.00;24.60;;;;;4.29;44.67;102019.78;2079334;28;46224;-63
2023/03/01 04:48:40;;;;;;;;;23.40;20.60;;;;;4.29;45.15;102020.66;2079504;28;45738;-66
2023/03/01 04:49:40;;;;;;;;;23.00;23.00;;;;;4.29;44.69;102023.28;2079036;28;46349;-66